Time;durP1;ratioP1;P1;durP2;ratioP2;P2;SDS_P1;SDS_P2;PMS_P1;PMS_P2;Temp;Humidity;BMP_temperature;BMP_pressure;BME280_temperature;BME280_humidity;BME280_pressure;Samples;Min_cycle;Max_cycle;Signal;HPM_P1;HPM_P2
2022/08/22 00:01:34;;;;;;;16.45;7.10;;;;;;;;;;5024882;28;20495;-84
2022/08/22 00:04:07;;;;;;;17.77;6.25;;;;;;;;;;5016847;28;20029;-83
2022/08/22 00:06:45;;;;;;;13.35;5.90;;;;;;;;;;5022106;28;20025;-85
2022/08/22 00:09:18;;;;;;;13.63;6.55;;;;;;;;;;5035681;28;20038;-83
2022/08/22 00:12:01;;;;;;;15.15;6.88;;;;;;;;;;5024285;28;20049;-83
2022/08/22 00:14:36;;;;;;;16.38;7.40;;;;;;;;;;5023841;28;20128;-81
2022/08/22 00:17:07;;;;;;;14.57;5.80;;;;;;;;;;5022053;28;20029;-81
2022/08/22 00:19:57;;;;;;;18.50;7.25;;;;;;;;;;5019055;28;20496;-80
2022/08/22 00:22:26;;;;;;;17.50;6.03;;;;;;;;;;5021190;28;20030;-81
2022/08/22 00:25:15;;;;;;;17.08;7.75;;;;;;;;;;5021334;28;20029;-83
2022/08/22 00:27:49;;;;;;;20.17;7.82;;;;;;;;;;5030232;28;20322;-82
2022/08/22 00:30:15;;;;;;;17.33;6.97;;;;;;;;;;5037002;28;20029;-82
2022/08/22 00:32:44;;;;;;;14.60;6.18;;;;;;;;;;5047270;28;20029;-82
2022/08/22 00:35:22;;;;;;;17.73;7.30;;;;;;;;;;5017700;28;20520;-82
2022/08/22 00:37:55;;;;;;;16.95;7.20;;;;;;;;;;5048966;28;20392;-82
2022/08/22 00:40:26;;;;;;;9.80;6.28;;;;;;;;;;5017267;28;20075;-82
2022/08/22 00:43:01;;;;;;;11.70;5.90;;;;;;;;;;5018733;28;20036;-84
2022/08/22 00:45:29;;;;;;;15.80;6.95;;;;;;;;;;5032129;28;20044;-81
2022/08/22 00:48:13;;;;;;;14.35;7.25;;;;;;;;;;5014713;28;20381;-81
2022/08/22 00:50:38;;;;;;;18.17;6.25;;;;;;;;;;5015889;28;20297;-81
2022/08/22 00:53:33;;;;;;;18.42;7.40;;;;;;;;;;5012397;28;20468;-81
2022/08/22 00:56:17;;;;;;;22.25;7.90;;;;;;;;;;5006201;28;20611;-81
2022/08/22 00:59:02;;;;;;;17.35;7.75;;;;;;;;;;5018391;28;20481;-81
2022/08/22 01:01:33;;;;;;;18.25;7.95;;;;;;;;;;5017572;28;20093;-85
2022/08/22 01:04:17;;;;;;;18.80;7.10;;;;;;;;;;5033974;28;20696;-83
2022/08/22 01:06:55;;;;;;;12.85;8.20;;;;;;;;;;5036280;28;20777;-82
2022/08/22 01:09:40;;;;;;;22.42;8.65;;;;;;;;;;5016215;28;20027;-82
2022/08/22 01:12:22;;;;;;;17.02;7.28;;;;;;;;;;5014708;28;20129;-84
2022/08/22 01:14:52;;;;;;;16.83;8.05;;;;;;;;;;5035764;28;20025;-84
2022/08/22 01:17:36;;;;;;;17.33;8.25;;;;;;;;;;5019140;28;20036;-84
2022/08/22 01:20:20;;;;;;;14.50;7.35;;;;;;;;;;5023011;28;20027;-84
2022/08/22 01:23:09;;;;;;;19.08;7.55;;;;;;;;;;5018177;28;20444;-84
2022/08/22 01:25:46;;;;;;;13.68;7.20;;;;;;;;;;5037307;28;20037;-84
2022/08/22 01:28:17;;;;;;;16.42;8.38;;;;;;;;;;5020141;28;20082;-81
2022/08/22 01:30:43;;;;;;;18.38;6.70;;;;;;;;;;5021425;28;20033;-85
2022/08/22 01:33:27;;;;;;;22.27;9.73;;;;;;;;;;5037433;28;20036;-84
2022/08/22 01:36:01;;;;;;;21.10;7.28;;;;;;;;;;5034791;28;20275;-81
2022/08/22 01:38:45;;;;;;;15.00;7.85;;;;;;;;;;5022155;28;20473;-81
2022/08/22 01:41:29;;;;;;;13.63;6.85;;;;;;;;;;5037453;28;20021;-84
2022/08/22 01:44:03;;;;;;;22.88;8.65;;;;;;;;;;5020519;28;20120;-81
2022/08/22 01:46:38;;;;;;;15.15;7.57;;;;;;;;;;5036821;28;20036;-84
2022/08/22 01:49:03;;;;;;;21.65;7.13;;;;;;;;;;5037354;28;20044;-81
2022/08/22 01:51:46;;;;;;;19.80;9.18;;;;;;;;;;5038236;28;20017;-86
2022/08/22 01:54:21;;;;;;;20.30;7.60;;;;;;;;;;5040059;28;20017;-85
2022/08/22 01:56:46;;;;;;;14.00;7.78;;;;;;;;;;5024960;28;20026;-85
2022/08/22 01:59:19;;;;;;;14.85;7.32;;;;;;;;;;5039713;28;20032;-81
2022/08/22 02:01:51;;;;;;;14.18;7.93;;;;;;;;;;5034314;28;20055;-85
2022/08/22 02:04:35;;;;;;;13.85;7.22;;;;;;;;;;5018876;28;20087;-80
2022/08/22 02:07:12;;;;;;;15.40;7.85;;;;;;;;;;5021464;28;20029;-81
2022/08/22 02:09:38;;;;;;;15.93;7.65;;;;;;;;;;5017319;28;20049;-81
2022/08/22 02:12:12;;;;;;;12.53;7.23;;;;;;;;;;5017086;28;20072;-81
2022/08/22 02:14:41;;;;;;;23.15;8.75;;;;;;;;;;5020693;28;20412;-81
2022/08/22 02:17:12;;;;;;;17.42;7.60;;;;;;;;;;5015731;28;20041;-84
2022/08/22 02:19:43;;;;;;;20.42;7.70;;;;;;;;;;5032060;28;20095;-84
2022/08/22 02:22:27;;;;;;;14.52;6.72;;;;;;;;;;5033172;28;20034;-83
2022/08/22 02:24:58;;;;;;;14.60;8.15;;;;;;;;;;5018716;28;20033;-81
2022/08/22 02:27:33;;;;;;;13.85;7.45;;;;;;;;;;5035129;28;20036;-84
2022/08/22 02:30:05;;;;;;;22.00;8.35;;;;;;;;;;5019318;28;20032;-81
2022/08/22 02:32:39;;;;;;;19.67;8.13;;;;;;;;;;5017343;28;20565;-84
2022/08/22 02:35:16;;;;;;;21.90;8.38;;;;;;;;;;5021245;28;20029;-84
2022/08/22 02:37:47;;;;;;;21.33;7.78;;;;;;;;;;5035374;28;20025;-83
2022/08/22 02:40:16;;;;;;;21.88;8.32;;;;;;;;;;5017358;28;20095;-84
2022/08/22 02:43:05;;;;;;;20.58;8.90;;;;;;;;;;5018050;28;20040;-84
2022/08/22 02:45:43;;;;;;;15.27;7.53;;;;;;;;;;5018980;28;20432;-84
2022/08/22 02:48:21;;;;;;;15.30;8.82;;;;;;;;;;5021297;28;20056;-81
2022/08/22 02:50:52;;;;;;;17.50;8.27;;;;;;;;;;5022860;28;20013;-81
2022/08/22 02:53:25;;;;;;;20.17;9.18;;;;;;;;;;5017495;28;20955;-81
2022/08/22 02:55:55;;;;;;;17.73;9.50;;;;;;;;;;5034360;28;20069;-85
2022/08/22 02:58:41;;;;;;;19.10;8.43;;;;;;;;;;5053584;28;20470;-81
2022/08/22 03:01:25;;;;;;;24.13;10.77;;;;;;;;;;5019908;28;20025;-80
2022/08/22 03:03:51;;;;;;;18.95;8.35;;;;;;;;;;5022823;28;20103;-83
2022/08/22 03:06:31;;;;;;;23.20;9.57;;;;;;;;;;5038644;28;20022;-84
2022/08/22 03:09:14;;;;;;;18.30;9.35;;;;;;;;;;5019267;28;20112;-84
2022/08/22 03:11:43;;;;;;;23.88;10.77;;;;;;;;;;5034320;28;20825;-83
2022/08/22 03:14:19;;;;;;;19.30;9.52;;;;;;;;;;5024907;28;20540;-83
2022/08/22 03:16:54;;;;;;;21.45;11.07;;;;;;;;;;5021231;28;20036;-80
2022/08/22 03:19:22;;;;;;;20.23;9.48;;;;;;;;;;5020780;28;20515;-80
2022/08/22 03:21:47;;;;;;;19.80;9.18;;;;;;;;;;5025041;28;20109;-85
2022/08/22 03:24:31;;;;;;;22.03;9.90;;;;;;;;;;5040862;28;20503;-85
2022/08/22 03:27:16;;;;;;;18.73;11.05;;;;;;;;;;5035123;28;20282;-82
2022/08/22 03:29:59;;;;;;;18.95;9.27;;;;;;;;;;5020725;28;20029;-80
2022/08/22 03:32:44;;;;;;;16.30;8.07;;;;;;;;;;5021595;28;20524;-80
2022/08/22 03:35:30;;;;;;;18.25;9.82;;;;;;;;;;5020230;28;20041;-80
2022/08/22 03:38:15;;;;;;;19.88;9.38;;;;;;;;;;5017414;28;20095;-80
2022/08/22 03:41:00;;;;;;;22.75;9.00;;;;;;;;;;5020596;28;20083;-82
2022/08/22 03:43:44;;;;;;;18.55;8.75;;;;;;;;;;5017013;28;20044;-80
2022/08/22 03:46:15;;;;;;;19.50;9.98;;;;;;;;;;5021296;28;20095;-80
2022/08/22 03:48:55;;;;;;;18.23;9.57;;;;;;;;;;5021537;28;20052;-83
2022/08/22 03:51:23;;;;;;;20.45;9.35;;;;;;;;;;5035569;28;20560;-85
2022/08/22 03:54:02;;;;;;;21.98;10.27;;;;;;;;;;5022292;28;20029;-81
2022/08/22 03:56:30;;;;;;;18.25;9.50;;;;;;;;;;5015630;28;20412;-81
2022/08/22 03:59:07;;;;;;;24.98;9.80;;;;;;;;;;5022223;28;20096;-85
2022/08/22 04:01:51;;;;;;;24.80;11.02;;;;;;;;;;5017539;28;21686;-83
2022/08/22 04:04:17;;;;;;;21.80;11.10;;;;;;;;;;5035345;28;20556;-82
2022/08/22 04:06:45;;;;;;;22.33;11.02;;;;;;;;;;5018259;28;20026;-81
2022/08/22 04:09:11;;;;;;;17.00;9.27;;;;;;;;;;5023926;28;20018;-80
2022/08/22 04:11:48;;;;;;;19.13;9.07;;;;;;;;;;5019593;28;20635;-83
2022/08/22 04:14:22;;;;;;;20.70;10.52;;;;;;;;;;5036971;28;20275;-79
2022/08/22 04:17:06;;;;;;;27.20;11.02;;;;;;;;;;5022385;28;20508;-81
2022/08/22 04:19:40;;;;;;;15.55;8.02;;;;;;;;;;5018621;28;20048;-81
2022/08/22 04:22:12;;;;;;;23.42;9.32;;;;;;;;;;5024602;28;20393;-80
2022/08/22 04:24:37;;;;;;;;;;;;;;;;;;5019723;28;20072;-80
2022/08/22 04:27:11;;;;;;;26.00;10.35;;;;;;;;;;5022751;28;19940;-84
2022/08/22 04:29:54;;;;;;;18.85;11.40;;;;;;;;;;5018607;28;20033;-82
2022/08/22 04:32:20;;;;;;;16.40;8.77;;;;;;;;;;5018928;28;20045;-80
2022/08/22 04:34:54;;;;;;;31.87;9.53;;;;;;;;;;5035475;28;20378;-82
2022/08/22 04:37:29;;;;;;;19.80;9.02;;;;;;;;;;5037859;28;22214;-80
2022/08/22 04:40:06;;;;;;;18.67;8.65;;;;;;;;;;5032697;28;20029;-81
2022/08/22 04:42:37;;;;;;;20.73;9.63;;;;;;;;;;5021830;28;20040;-80
2022/08/22 04:45:22;;;;;;;23.10;9.93;;;;;;;;;;5033766;28;20025;-84
2022/08/22 04:47:52;;;;;;;22.63;10.02;;;;;;;;;;5031236;28;20527;-82
2022/08/22 04:50:23;;;;;;;25.35;9.63;;;;;;;;;;5019915;28;20088;-84
2022/08/22 04:52:55;;;;;;;20.92;9.13;;;;;;;;;;5015754;28;20017;-80
2022/08/22 04:55:29;;;;;;;21.65;10.05;;;;;;;;;;5018864;28;20029;-80
2022/08/22 04:58:07;;;;;;;22.38;10.05;;;;;;;;;;5029799;28;20136;-80
2022/08/22 05:00:43;;;;;;;18.83;9.63;;;;;;;;;;5036960;28;20061;-83
2022/08/22 05:03:11;;;;;;;25.17;9.73;;;;;;;;;;5036760;28;20045;-80
2022/08/22 05:05:38;;;;;;;24.88;9.85;;;;;;;;;;5035635;28;20022;-84
2022/08/22 05:08:06;;;;;;;24.67;9.88;;;;;;;;;;5032064;28;20050;-84
2022/08/22 05:10:31;;;;;;;22.25;10.85;;;;;;;;;;5035593;28;20137;-84
2022/08/22 05:12:59;;;;;;;20.70;8.45;;;;;;;;;;5018702;28;20533;-79
2022/08/22 05:15:39;;;;;;;21.92;9.70;;;;;;;;;;5038232;28;20112;-82
2022/08/22 05:18:06;;;;;;;17.52;9.00;;;;;;;;;;5017179;28;20144;-83
2022/08/22 05:20:33;;;;;;;17.63;9.88;;;;;;;;;;5048542;28;20021;-84
2022/08/22 05:23:01;;;;;;;24.88;10.07;;;;;;;;;;5023403;28;20501;-80
2022/08/22 05:25:32;;;;;;;24.55;10.55;;;;;;;;;;5018978;28;20108;-79
2022/08/22 05:28:07;;;;;;;22.42;9.65;;;;;;;;;;5024201;28;20501;-84
2022/08/22 05:30:32;;;;;;;25.27;10.02;;;;;;;;;;5016367;28;20579;-84
2022/08/22 05:33:01;;;;;;;19.35;9.75;;;;;;;;;;5021328;28;20021;-83
2022/08/22 05:35:37;;;;;;;16.45;9.23;;;;;;;;;;5030282;28;20029;-84
2022/08/22 05:38:03;;;;;;;19.08;10.32;;;;;;;;;;5019437;28;20164;-84
2022/08/22 05:40:33;;;;;;;15.98;8.57;;;;;;;;;;5019507;28;20026;-80
2022/08/22 05:43:02;;;;;;;19.70;9.30;;;;;;;;;;5038877;28;20482;-84
2022/08/22 05:45:28;;;;;;;22.50;9.70;;;;;;;;;;5038732;28;20053;-80
2022/08/22 05:48:10;;;;;;;22.98;9.65;;;;;;;;;;5020894;28;20318;-85
2022/08/22 05:50:35;;;;;;;21.92;10.38;;;;;;;;;;5036143;28;20390;-80
2022/08/22 05:53:01;;;;;;;26.23;11.13;;;;;;;;;;5031939;28;20103;-83
2022/08/22 05:55:41;;;;;;;31.10;11.18;;;;;;;;;;5021061;28;20021;-85
2022/08/22 05:58:06;;;;;;;21.52;9.52;;;;;;;;;;5017382;28;20033;-81
2022/08/22 06:00:35;;;;;;;19.27;9.75;;;;;;;;;;5020382;28;20064;-82
2022/08/22 06:03:04;;;;;;;18.58;8.23;;;;;;;;;;5030134;28;20560;-81
2022/08/22 06:05:31;;;;;;;20.08;8.75;;;;;;;;;;5019571;28;20025;-80
2022/08/22 06:08:01;;;;;;;36.53;9.32;;;;;;;;;;5017541;28;20136;-81
2022/08/22 06:10:30;;;;;;;21.10;9.13;;;;;;;;;;5018861;28;20045;-81
2022/08/22 06:12:55;;;;;;;27.08;10.30;;;;;;;;;;5023338;28;20533;-81
2022/08/22 06:15:26;;;;;;;28.27;10.30;;;;;;;;;;5036271;28;20052;-82
2022/08/22 06:17:57;;;;;;;22.77;6.72;;;;;;;;;;5014747;28;20072;-81
2022/08/22 06:20:25;;;;;;;26.98;10.02;;;;;;;;;;5036014;28;20244;-80
2022/08/22 06:22:53;;;;;;;23.08;9.77;;;;;;;;;;5034880;28;20041;-81
2022/08/22 06:25:26;;;;;;;22.13;9.35;;;;;;;;;;5005241;28;20064;-82
2022/08/22 06:27:52;;;;;;;28.27;10.38;;;;;;;;;;5019046;28;20071;-80
2022/08/22 06:30:17;;;;;;;21.52;8.07;;;;;;;;;;5017380;28;20407;-80
2022/08/22 06:32:45;;;;;;;19.08;8.32;;;;;;;;;;5029164;28;20041;-81
2022/08/22 06:35:25;;;;;;;20.42;9.65;;;;;;;;;;5031944;28;20033;-81
2022/08/22 06:37:53;;;;;;;25.83;8.55;;;;;;;;;;5003252;28;20108;-80
2022/08/22 06:40:19;;;;;;;18.90;8.68;;;;;;;;;;5030074;28;20034;-80
2022/08/22 06:42:47;;;;;;;23.55;8.52;;;;;;;;;;5049148;28;20033;-81
2022/08/22 06:45:27;;;;;;;36.55;9.40;;;;;;;;;;5018002;28;20037;-84
2022/08/22 06:48:10;;;;;;;20.92;9.43;;;;;;;;;;5020889;28;20139;-84
2022/08/22 06:50:38;;;;;;;26.63;9.07;;;;;;;;;;5023157;28;20458;-84
2022/08/22 06:53:05;;;;;;;19.70;8.00;;;;;;;;;;5021127;28;20661;-84
2022/08/22 06:55:31;;;;;;;16.90;7.38;;;;;;;;;;5035734;28;20505;-85
2022/08/22 06:57:58;;;;;;;14.77;7.20;;;;;;;;;;5026998;28;20033;-85
2022/08/22 07:00:26;;;;;;;17.85;7.38;;;;;;;;;;5025506;28;20034;-84
2022/08/22 07:02:54;;;;;;;20.02;9.13;;;;;;;;;;5026615;28;20024;-86
2022/08/22 07:05:21;;;;;;;21.52;7.47;;;;;;;;;;5040031;28;20076;-85
2022/08/22 07:07:51;;;;;;;20.58;8.57;;;;;;;;;;5021311;28;20026;-84
2022/08/22 07:10:17;;;;;;;25.65;7.25;;;;;;;;;;5027617;28;20541;-86
2022/08/22 07:12:46;;;;;;;22.27;7.32;;;;;;;;;;5026787;28;20060;-84
2022/08/22 07:15:19;;;;;;;14.63;6.45;;;;;;;;;;5038795;28;20396;-85
2022/08/22 07:17:49;;;;;;;18.35;7.38;;;;;;;;;;5034324;28;20041;-85
2022/08/22 07:20:23;;;;;;;26.20;8.85;;;;;;;;;;5023758;28;20029;-85
2022/08/22 07:22:59;;;;;;;20.08;8.48;;;;;;;;;;5055838;28;20022;-85
2022/08/22 07:25:25;;;;;;;35.65;8.95;;;;;;;;;;5021814;28;20317;-86
2022/08/22 07:28:12;;;;;;;19.83;8.60;;;;;;;;;;5024470;28;20048;-86
2022/08/22 07:30:53;;;;;;;21.90;7.13;;;;;;;;;;5022531;28;20021;-87
2022/08/22 07:33:28;;;;;;;18.13;7.28;;;;;;;;;;5023877;28;20026;-84
2022/08/22 07:35:58;;;;;;;19.95;9.23;;;;;;;;;;5024449;28;20029;-84
2022/08/22 07:38:41;;;;;;;21.52;11.38;;;;;;;;;;5040486;28;20022;-83
2022/08/22 07:41:12;;;;;;;26.58;9.05;;;;;;;;;;5026347;28;20021;-84
2022/08/22 07:43:40;;;;;;;22.00;8.63;;;;;;;;;;5042721;28;20033;-85
2022/08/22 07:46:11;;;;;;;16.77;7.53;;;;;;;;;;5027915;28;20029;-85
2022/08/22 07:48:42;;;;;;;22.40;8.57;;;;;;;;;;5040621;28;20549;-85
2022/08/22 07:51:12;;;;;;;21.55;9.27;;;;;;;;;;5027860;28;20029;-84
2022/08/22 07:53:42;;;;;;;26.40;10.63;;;;;;;;;;5041546;28;20547;-85
2022/08/22 07:56:11;;;;;;;33.45;10.32;;;;;;;;;;5027125;28;20092;-86
2022/08/22 07:58:38;;;;;;;28.98;8.52;;;;;;;;;;5060614;28;20111;-86
2022/08/22 08:01:05;;;;;;;30.40;11.10;;;;;;;;;;5034678;28;20018;-84
2022/08/22 08:03:31;;;;;;;32.28;8.15;;;;;;;;;;5057948;28;20486;-84
2022/08/22 08:05:58;;;;;;;28.73;9.98;;;;;;;;;;5043636;28;20029;-84
2022/08/22 08:08:32;;;;;;;24.80;8.35;;;;;;;;;;5025022;28;20036;-83
2022/08/22 08:10:58;;;;;;;22.15;9.40;;;;;;;;;;5036953;28;20037;-83
2022/08/22 08:13:34;;;;;;;21.33;7.13;;;;;;;;;;5042001;28;20060;-84
2022/08/22 08:15:59;;;;;;;19.45;9.45;;;;;;;;;;5039244;28;20021;-84
2022/08/22 08:18:26;;;;;;;25.00;7.72;;;;;;;;;;5025878;28;20032;-84
2022/08/22 08:20:55;;;;;;;31.85;8.82;;;;;;;;;;5022569;28;20044;-84
2022/08/22 08:23:23;;;;;;;19.23;8.18;;;;;;;;;;5025641;28;20037;-85
2022/08/22 08:26:05;;;;;;;19.10;6.55;;;;;;;;;;5041745;28;20070;-84
2022/08/22 08:28:33;;;;;;;20.15;6.35;;;;;;;;;;5028372;28;20460;-84
2022/08/22 08:31:20;;;;;;;25.83;5.32;;;;;;;;;;5041215;28;20468;-84
2022/08/22 08:33:47;;;;;;;17.85;6.07;;;;;;;;;;5043099;28;20034;-85
2022/08/22 08:36:24;;;;;;;17.65;5.45;;;;;;;;;;5045882;28;20029;-84
2022/08/22 08:39:02;;;;;;;20.85;6.38;;;;;;;;;;5038760;28;20079;-84
2022/08/22 08:41:42;;;;;;;19.35;6.47;;;;;;;;;;5018414;28;20033;-81
2022/08/22 08:44:26;;;;;;;10.48;4.65;;;;;;;;;;5028349;28;20645;-83
2022/08/22 08:47:10;;;;;;;16.08;5.18;;;;;;;;;;5039812;28;20120;-82
2022/08/22 08:49:39;;;;;;;18.20;5.05;;;;;;;;;;5021305;28;20520;-83
2022/08/22 08:52:23;;;;;;;17.92;6.63;;;;;;;;;;5041520;28;20030;-82
2022/08/22 08:54:50;;;;;;;16.88;4.90;;;;;;;;;;5020408;28;20021;-82
2022/08/22 08:57:34;;;;;;;16.02;4.47;;;;;;;;;;5029144;28;20156;-82
2022/08/22 09:00:20;;;;;;;9.63;4.28;;;;;;;;;;5023438;28;20500;-83
2022/08/22 09:03:02;;;;;;;13.65;5.10;;;;;;;;;;5028946;28;20084;-82
2022/08/22 09:05:46;;;;;;;15.30;4.82;;;;;;;;;;5021729;28;20493;-83
2022/08/22 09:08:29;;;;;;;20.50;5.28;;;;;;;;;;5021869;28;20018;-82
2022/08/22 09:11:09;;;;;;;15.48;4.88;;;;;;;;;;5040754;28;20053;-82
2022/08/22 09:13:40;;;;;;;11.68;5.13;;;;;;;;;;5019959;28;20045;-82
2022/08/22 09:16:11;;;;;;;10.60;5.55;;;;;;;;;;5019644;28;20026;-81
2022/08/22 09:19:01;;;;;;;15.77;5.47;;;;;;;;;;5019733;28;20037;-82
2022/08/22 09:21:32;;;;;;;14.52;4.82;;;;;;;;;;5054177;28;20385;-82
2022/08/22 09:23:57;;;;;;;10.45;4.90;;;;;;;;;;5020485;28;20296;-81
2022/08/22 09:26:28;;;;;;;13.17;4.80;;;;;;;;;;5024259;28;20124;-81
2022/08/22 09:29:12;;;;;;;10.38;4.50;;;;;;;;;;5041220;28;20350;-81
2022/08/22 09:31:45;;;;;;;18.85;5.55;;;;;;;;;;5038525;28;20089;-81
2022/08/22 09:34:30;;;;;;;17.35;4.50;;;;;;;;;;5038780;28;20030;-82
2022/08/22 09:37:15;;;;;;;15.35;5.10;;;;;;;;;;5023654;28;20621;-82
2022/08/22 09:40:02;;;;;;;15.85;6.65;;;;;;;;;;5035000;28;20037;-82
2022/08/22 09:42:34;;;;;;;16.27;4.65;;;;;;;;;;5023523;28;20033;-81
2022/08/22 09:45:17;;;;;;;17.33;4.50;;;;;;;;;;5029535;28;20025;-82
2022/08/22 09:47:42;;;;;;;17.17;5.07;;;;;;;;;;5025865;28;20053;-81
2022/08/22 09:50:23;;;;;;;14.43;4.90;;;;;;;;;;5042260;28;20041;-81
2022/08/22 09:53:07;;;;;;;16.42;4.82;;;;;;;;;;5039583;28;20290;-81
2022/08/22 09:55:48;;;;;;;14.93;4.78;;;;;;;;;;5025377;28;20104;-81
2022/08/22 09:58:24;;;;;;;18.17;5.20;;;;;;;;;;5025969;28;20030;-82
2022/08/22 10:00:58;;;;;;;12.82;4.30;;;;;;;;;;5022459;28;20029;-82
2022/08/22 10:03:42;;;;;;;13.77;4.70;;;;;;;;;;5042791;28;20032;-81
2022/08/22 10:06:12;;;;;;;17.77;4.38;;;;;;;;;;5025512;28;20087;-79
2022/08/22 10:08:45;;;;;;;29.55;5.03;;;;;;;;;;5023761;28;20025;-78
2022/08/22 10:11:18;;;;;;;12.52;3.88;;;;;;;;;;5028349;28;20099;-85
2022/08/22 10:13:55;;;;;;;12.98;4.63;;;;;;;;;;5023079;28;20131;-77
2022/08/22 10:16:41;;;;;;;12.18;4.40;;;;;;;;;;5034669;28;20037;-81
2022/08/22 10:19:06;;;;;;;18.00;4.88;;;;;;;;;;5038561;28;20033;-79
2022/08/22 10:21:41;;;;;;;13.27;4.63;;;;;;;;;;5020911;28;20390;-79
2022/08/22 10:24:31;;;;;;;20.52;4.30;;;;;;;;;;5020973;28;20082;-79
2022/08/22 10:27:00;;;;;;;15.02;4.22;;;;;;;;;;5022887;28;20088;-78
2022/08/22 10:29:40;;;;;;;17.92;3.63;;;;;;;;;;5026187;28;20041;-84
2022/08/22 10:32:16;;;;;;;9.73;3.22;;;;;;;;;;5021425;28;20029;-86
2022/08/22 10:34:45;;;;;;;13.50;3.63;;;;;;;;;;5021699;28;20030;-77
2022/08/22 10:37:16;;;;;;;10.20;3.65;;;;;;;;;;5033216;28;20026;-84
2022/08/22 10:39:41;;;;;;;15.35;4.68;;;;;;;;;;5027417;28;20494;-84
2022/08/22 10:42:09;;;;;;;14.93;4.43;;;;;;;;;;5026894;28;20056;-77
2022/08/22 10:44:46;;;;;;;16.08;4.20;;;;;;;;;;5027727;28;20329;-84
2022/08/22 10:47:11;;;;;;;14.68;4.22;;;;;;;;;;5025925;28;20022;-78
2022/08/22 10:50:00;;;;;;;13.07;3.65;;;;;;;;;;5019076;28;20033;-78
2022/08/22 10:52:30;;;;;;;10.30;3.55;;;;;;;;;;5025668;28;20080;-84
2022/08/22 10:54:56;;;;;;;18.05;3.53;;;;;;;;;;5023474;28;20030;-77
2022/08/22 10:57:27;;;;;;;15.27;3.97;;;;;;;;;;5025440;28;20523;-82
2022/08/22 11:00:00;;;;;;;18.17;5.32;;;;;;;;;;5027176;28;20053;-77
2022/08/22 11:02:44;;;;;;;12.65;4.22;;;;;;;;;;5031905;28;20477;-78
2022/08/22 11:05:28;;;;;;;13.70;4.47;;;;;;;;;;5033602;28;20594;-85
2022/08/22 11:07:58;;;;;;;14.05;3.95;;;;;;;;;;5020107;28;20490;-82
2022/08/22 11:10:29;;;;;;;15.38;5.22;;;;;;;;;;5042911;28;20489;-86
2022/08/22 11:12:57;;;;;;;13.47;3.93;;;;;;;;;;5021552;28;20041;-78
2022/08/22 11:15:41;;;;;;;9.50;3.53;;;;;;;;;;5039500;28;20119;-78
2022/08/22 11:18:19;;;;;;;15.50;4.20;;;;;;;;;;5026827;28;20580;-84
2022/08/22 11:21:11;;;;;;;17.20;4.22;;;;;;;;;;5025479;28;20032;-85
2022/08/22 11:23:53;;;;;;;16.30;4.10;;;;;;;;;;5047675;28;20034;-79
2022/08/22 11:26:37;;;;;;;17.90;4.28;;;;;;;;;;5021940;28;20116;-86
2022/08/22 11:29:21;;;;;;;11.35;4.53;;;;;;;;;;5025239;28;20116;-78
2022/08/22 11:31:58;;;;;;;6.90;4.38;;;;;;;;;;5030843;28;20021;-86
2022/08/22 11:34:42;;;;;;;16.60;4.20;;;;;;;;;;5030515;28;20087;-78
2022/08/22 11:37:10;;;;;;;12.65;4.20;;;;;;;;;;5044312;28;20030;-78
2022/08/22 11:39:44;;;;;;;14.50;4.55;;;;;;;;;;5025651;28;20425;-85
2022/08/22 11:42:30;;;;;;;15.45;4.22;;;;;;;;;;5042138;28;20037;-78
2022/08/22 11:45:00;;;;;;;15.00;4.30;;;;;;;;;;5024020;28;20508;-78
2022/08/22 11:47:29;;;;;;;22.88;4.50;;;;;;;;;;5016292;28;20090;-85
2022/08/22 11:49:56;;;;;;;12.45;4.22;;;;;;;;;;5021683;28;20037;-78
2022/08/22 11:52:21;;;;;;;18.08;5.10;;;;;;;;;;5024394;28;20091;-79
2022/08/22 11:55:05;;;;;;;13.65;4.55;;;;;;;;;;5019450;28;21297;-85
2022/08/22 11:57:44;;;;;;;20.30;5.80;;;;;;;;;;5022639;28;20679;-78
2022/08/22 12:00:10;;;;;;;17.48;4.93;;;;;;;;;;5024706;28;20029;-79
2022/08/22 12:02:50;;;;;;;19.92;4.50;;;;;;;;;;5026154;28;20071;-78
2022/08/22 12:05:18;;;;;;;14.30;4.30;;;;;;;;;;5027081;28;20051;-78
2022/08/22 12:07:52;;;;;;;20.45;4.90;;;;;;;;;;5041064;28;21367;-87
2022/08/22 12:10:24;;;;;;;13.25;4.53;;;;;;;;;;5027816;28;20144;-79
2022/08/22 12:12:49;;;;;;;;;;;;;;;;;;5031525;28;20026;-87
2022/08/22 12:15:18;;;;;;;10.23;3.90;;;;;;;;;;5024516;28;19923;-82
2022/08/22 12:17:54;;;;;;;15.52;5.30;;;;;;;;;;5023532;28;20824;-80
2022/08/22 12:20:44;;;;;;;14.60;4.47;;;;;;;;;;5026643;28;20035;-83
2022/08/22 12:23:29;;;;;;;9.98;4.38;;;;;;;;;;5027701;28;20057;-82
2022/08/22 12:26:04;;;;;;;15.02;4.53;;;;;;;;;;5037613;28;20417;-83
2022/08/22 12:28:51;;;;;;;19.02;4.85;;;;;;;;;;5039338;28;20308;-82
2022/08/22 12:31:32;;;;;;;12.40;4.47;;;;;;;;;;5027363;28;20231;-83
2022/08/22 12:34:02;;;;;;;12.93;4.80;;;;;;;;;;5021973;28;20033;-81
2022/08/22 12:36:27;;;;;;;9.85;4.40;;;;;;;;;;5022260;28;20034;-83
2022/08/22 12:38:53;;;;;;;20.90;5.68;;;;;;;;;;5029766;28;20504;-82
2022/08/22 12:41:28;;;;;;;13.88;4.82;;;;;;;;;;5022913;28;20025;-80
2022/08/22 12:44:04;;;;;;;16.33;5.10;;;;;;;;;;5029961;28;20033;-82
2022/08/22 12:46:39;;;;;;;16.50;5.53;;;;;;;;;;5029151;28;20041;-82
2022/08/22 12:49:16;;;;;;;14.80;5.35;;;;;;;;;;5042164;28;20516;-82
2022/08/22 12:52:01;;;;;;;17.92;5.50;;;;;;;;;;5025667;28;20367;-82
2022/08/22 12:54:45;;;;;;;14.30;5.28;;;;;;;;;;5024140;28;20064;-82
2022/08/22 12:57:32;;;;;;;13.95;4.65;;;;;;;;;;5025650;28;20045;-81
2022/08/22 13:00:16;;;;;;;10.23;4.95;;;;;;;;;;5022506;28;20038;-82
2022/08/22 13:02:45;;;;;;;15.32;5.50;;;;;;;;;;5023425;28;20036;-82
2022/08/22 13:05:14;;;;;;;13.82;4.50;;;;;;;;;;5026785;28;20033;-82
2022/08/22 13:07:41;;;;;;;12.80;4.75;;;;;;;;;;5024349;28;20678;-82
2022/08/22 13:10:25;;;;;;;10.63;4.60;;;;;;;;;;5042157;28;20520;-82
2022/08/22 13:12:52;;;;;;;15.38;5.38;;;;;;;;;;5041870;28;20493;-79
2022/08/22 13:15:17;;;;;;;14.95;5.38;;;;;;;;;;5026969;28;20426;-80
2022/08/22 13:17:43;;;;;;;13.52;5.65;;;;;;;;;;5037171;28;20069;-81
2022/08/22 13:20:12;;;;;;;11.25;4.90;;;;;;;;;;5029418;28;20055;-80
2022/08/22 13:22:39;;;;;;;14.48;5.38;;;;;;;;;;5019347;28;20124;-80
2022/08/22 13:25:07;;;;;;;19.90;6.30;;;;;;;;;;5021170;28;20018;-80
2022/08/22 13:27:35;;;;;;;16.52;5.90;;;;;;;;;;5040142;28;20082;-80
2022/08/22 13:30:15;;;;;;;10.90;4.25;;;;;;;;;;5027541;28;20025;-80
2022/08/22 13:32:44;;;;;;;11.00;4.82;;;;;;;;;;5027341;28;20029;-80
2022/08/22 13:35:16;;;;;;;11.95;5.68;;;;;;;;;;5022260;28;20025;-83
2022/08/22 13:37:43;;;;;;;17.85;5.32;;;;;;;;;;5043580;28;20033;-83
2022/08/22 13:40:28;;;;;;;11.43;5.07;;;;;;;;;;5042454;28;20090;-82
2022/08/22 13:43:14;;;;;;;11.32;5.00;;;;;;;;;;5049998;28;20124;-85
2022/08/22 13:45:40;;;;;;;20.95;4.85;;;;;;;;;;5021518;28;20041;-86
2022/08/22 13:48:08;;;;;;;18.98;5.38;;;;;;;;;;5041940;28;20029;-82
2022/08/22 13:50:35;;;;;;;17.80;4.70;;;;;;;;;;5025522;28;20029;-84
2022/08/22 13:53:03;;;;;;;12.48;4.32;;;;;;;;;;5028850;28;20688;-84
2022/08/22 13:55:32;;;;;;;13.20;5.05;;;;;;;;;;5026992;28;20075;-82
2022/08/22 13:57:58;;;;;;;18.98;5.13;;;;;;;;;;5035949;28;20476;-82
2022/08/22 14:00:26;;;;;;;19.38;5.82;;;;;;;;;;5033829;28;20033;-84
2022/08/22 14:03:06;;;;;;;18.52;5.75;;;;;;;;;;5029477;28;20050;-87
2022/08/22 14:05:40;;;;;;;16.52;5.70;;;;;;;;;;5021993;28;20324;-82
2022/08/22 14:08:14;;;;;;;15.48;5.82;;;;;;;;;;5019795;28;20048;-82
2022/08/22 14:10:44;;;;;;;13.57;5.57;;;;;;;;;;5022354;28;20048;-83
2022/08/22 14:13:09;;;;;;;17.35;6.47;;;;;;;;;;5034461;28;20021;-83
2022/08/22 14:15:35;;;;;;;10.57;4.67;;;;;;;;;;5021894;28;20038;-83
2022/08/22 14:18:10;;;;;;;15.38;5.88;;;;;;;;;;5026849;28;20266;-83
2022/08/22 14:20:36;;;;;;;15.88;5.15;;;;;;;;;;5026253;28;20398;-82
2022/08/22 14:23:05;;;;;;;18.40;4.75;;;;;;;;;;5018983;28;20056;-83
2022/08/22 14:25:33;;;;;;;22.00;5.03;;;;;;;;;;5023297;28;20097;-82
2022/08/22 14:28:00;;;;;;;14.10;5.05;;;;;;;;;;5019992;28;20060;-83
2022/08/22 14:30:30;;;;;;;11.35;4.82;;;;;;;;;;5021753;28;21141;-83
2022/08/22 14:32:58;;;;;;;10.88;4.35;;;;;;;;;;5021732;28;20537;-82
2022/08/22 14:35:30;;;;;;;13.82;5.35;;;;;;;;;;5022977;28;20025;-82
2022/08/22 14:38:18;;;;;;;17.50;5.38;;;;;;;;;;5016376;28;20104;-83
2022/08/22 14:40:44;;;;;;;13.75;5.38;;;;;;;;;;5006282;28;20123;-83
2022/08/22 14:43:35;;;;;;;16.15;4.85;;;;;;;;;;5018941;28;20393;-82
2022/08/22 14:46:05;;;;;;;11.93;4.60;;;;;;;;;;5013918;28;20108;-83
2022/08/22 14:48:50;;;;;;;17.88;6.40;;;;;;;;;;5019111;28;20509;-82
2022/08/22 14:51:35;;;;;;;11.20;4.70;;;;;;;;;;4987450;28;20109;-82
2022/08/22 14:54:09;;;;;;;10.60;4.43;;;;;;;;;;5028319;28;20041;-82
2022/08/22 14:56:35;;;;;;;12.52;5.55;;;;;;;;;;5018360;28;20048;-81
2022/08/22 14:59:06;;;;;;;17.77;4.60;;;;;;;;;;5019470;28;20045;-80
2022/08/22 15:01:32;;;;;;;14.38;5.10;;;;;;;;;;5032241;28;20627;-79
2022/08/22 15:04:08;;;;;;;15.93;4.72;;;;;;;;;;5016109;28;20030;-89
2022/08/22 15:06:41;;;;;;;8.20;5.07;;;;;;;;;;5018527;28;20033;-80
2022/08/22 15:09:25;;;;;;;14.60;5.40;;;;;;;;;;5033483;28;20025;-81
2022/08/22 15:11:50;;;;;;;14.25;4.75;;;;;;;;;;5031731;28;20046;-80